sensor_id;sensor_type;location;lat;lon;timestamp;temperature;humidity
46752;DHT22;32497;48.936;9.270;2022-10-28T00:00:38;14.20;81.20
46752;DHT22;32497;48.936;9.270;2022-10-28T00:05:41;13.90;82.30
46752;DHT22;32497;48.936;9.270;2022-10-28T00:10:42;13.70;82.80
46752;DHT22;32497;48.936;9.270;2022-10-28T00:15:43;13.70;83.10
46752;DHT22;32497;48.936;9.270;2022-10-28T00:20:45;13.70;82.60
46752;DHT22;32497;48.936;9.270;2022-10-28T00:25:46;13.90;81.70
46752;DHT22;32497;48.936;9.270;2022-10-28T00:30:47;14.00;81.10
46752;DHT22;32497;48.936;9.270;2022-10-28T00:35:50;14.10;80.50
46752;DHT22;32497;48.936;9.270;2022-10-28T00:40:51;14.20;80.10
46752;DHT22;32497;48.936;9.270;2022-10-28T00:45:52;14.00;80.80
46752;DHT22;32497;48.936;9.270;2022-10-28T00:50:54;13.80;81.90
46752;DHT22;32497;48.936;9.270;2022-10-28T00:55:56;13.70;82.80
46752;DHT22;32497;48.936;9.270;2022-10-28T01:00:59;13.70;82.80
46752;DHT22;32497;48.936;9.270;2022-10-28T01:06:01;13.70;82.80
46752;DHT22;32497;48.936;9.270;2022-10-28T01:11:34;13.80;82.40
46752;DHT22;32497;48.936;9.270;2022-10-28T01:16:43;13.80;82.50
46752;DHT22;32497;48.936;9.270;2022-10-28T01:22:07;13.60;83.10
46752;DHT22;32497;48.936;9.270;2022-10-28T01:27:55;13.50;83.60
46752;DHT22;32497;48.936;9.270;2022-10-28T01:33:06;13.60;83.00
46752;DHT22;32497;48.936;9.270;2022-10-28T01:38:19;13.60;83.10
46752;DHT22;32497;48.936;9.270;2022-10-28T01:43:27;13.50;83.00
46752;DHT22;32497;48.936;9.270;2022-10-28T01:48:33;13.60;82.70
46752;DHT22;32497;48.936;9.270;2022-10-28T01:53:38;13.40;83.10
46752;DHT22;32497;48.936;9.270;2022-10-28T01:58:40;13.20;83.70
46752;DHT22;32497;48.936;9.270;2022-10-28T02:03:45;13.20;83.60
46752;DHT22;32497;48.936;9.270;2022-10-28T02:09:02;13.30;83.40
46752;DHT22;32497;48.936;9.270;2022-10-28T02:14:16;13.30;83.40
46752;DHT22;32497;48.936;9.270;2022-10-28T02:19:28;13.20;83.70
46752;DHT22;32497;48.936;9.270;2022-10-28T02:24:39;13.20;83.70
46752;DHT22;32497;48.936;9.270;2022-10-28T02:29:48;13.20;83.60
46752;DHT22;32497;48.936;9.270;2022-10-28T02:34:54;13.20;83.50
46752;DHT22;32497;48.936;9.270;2022-10-28T02:39:59;13.40;82.90
46752;DHT22;32497;48.936;9.270;2022-10-28T02:45:06;13.40;82.80
46752;DHT22;32497;48.936;9.270;2022-10-28T02:50:14;13.50;82.90
46752;DHT22;32497;48.936;9.270;2022-10-28T02:55:18;13.50;82.90
46752;DHT22;32497;48.936;9.270;2022-10-28T03:00:21;13.60;82.50
46752;DHT22;32497;48.936;9.270;2022-10-28T03:05:24;13.60;82.30
46752;DHT22;32497;48.936;9.270;2022-10-28T03:10:25;13.50;82.60
46752;DHT22;32497;48.936;9.270;2022-10-28T03:15:26;13.50;82.80
46752;DHT22;32497;48.936;9.270;2022-10-28T03:20:29;13.50;82.90
46752;DHT22;32497;48.936;9.270;2022-10-28T03:25:30;13.40;83.10
46752;DHT22;32497;48.936;9.270;2022-10-28T03:30:31;13.40;83.30
46752;DHT22;32497;48.936;9.270;2022-10-28T03:35:34;13.30;83.40
46752;DHT22;32497;48.936;9.270;2022-10-28T03:40:35;13.30;83.50
46752;DHT22;32497;48.936;9.270;2022-10-28T03:45:36;13.40;83.50
46752;DHT22;32497;48.936;9.270;2022-10-28T03:50:38;13.40;83.30
46752;DHT22;32497;48.936;9.270;2022-10-28T03:55:39;13.20;83.70
46752;DHT22;32497;48.936;9.270;2022-10-28T04:00:40;13.20;84.10
46752;DHT22;32497;48.936;9.270;2022-10-28T04:05:43;13.10;84.50
46752;DHT22;32497;48.936;9.270;2022-10-28T04:10:46;13.10;85.10
46752;DHT22;32497;48.936;9.270;2022-10-28T04:15:47;13.10;85.10
46752;DHT22;32497;48.936;9.270;2022-10-28T04:20:50;13.30;84.10
46752;DHT22;32497;48.936;9.270;2022-10-28T04:25:51;13.40;84.10
46752;DHT22;32497;48.936;9.270;2022-10-28T04:30:53;13.60;83.30
46752;DHT22;32497;48.936;9.270;2022-10-28T04:35:55;13.70;82.50
46752;DHT22;32497;48.936;9.270;2022-10-28T04:40:56;13.70;82.60
46752;DHT22;32497;48.936;9.270;2022-10-28T04:45:57;13.70;82.70
46752;DHT22;32497;48.936;9.270;2022-10-28T04:50:59;13.70;82.70
46752;DHT22;32497;48.936;9.270;2022-10-28T04:56:01;13.80;82.50
46752;DHT22;32497;48.936;9.270;2022-10-28T05:01:04;13.70;82.60
46752;DHT22;32497;48.936;9.270;2022-10-28T05:06:07;13.80;82.90
46752;DHT22;32497;48.936;9.270;2022-10-28T05:11:08;13.80;83.10
46752;DHT22;32497;48.936;9.270;2022-10-28T05:16:09;13.60;84.00
46752;DHT22;32497;48.936;9.270;2022-10-28T05:21:11;13.40;84.70
46752;DHT22;32497;48.936;9.270;2022-10-28T05:26:13;13.30;85.10
46752;DHT22;32497;48.936;9.270;2022-10-28T05:31:14;13.20;85.10
46752;DHT22;32497;48.936;9.270;2022-10-28T05:36:16;13.30;84.90
46752;DHT22;32497;48.936;9.270;2022-10-28T05:41:18;13.40;84.10
46752;DHT22;32497;48.936;9.270;2022-10-28T05:46:19;13.50;83.90
46752;DHT22;32497;48.936;9.270;2022-10-28T05:51:21;13.50;83.90
46752;DHT22;32497;48.936;9.270;2022-10-28T05:56:22;13.40;84.00
46752;DHT22;32497;48.936;9.270;2022-10-28T06:01:23;13.30;84.30
46752;DHT22;32497;48.936;9.270;2022-10-28T06:06:27;13.20;84.60
46752;DHT22;32497;48.936;9.270;2022-10-28T06:11:28;13.10;85.10
46752;DHT22;32497;48.936;9.270;2022-10-28T06:16:29;13.00;85.50
46752;DHT22;32497;48.936;9.270;2022-10-28T06:21:31;12.90;85.80
46752;DHT22;32497;48.936;9.270;2022-10-28T06:26:32;12.70;86.30
46752;DHT22;32497;48.936;9.270;2022-10-28T06:31:34;12.60;86.90
46752;DHT22;32497;48.936;9.270;2022-10-28T06:36:36;12.60;86.90
46752;DHT22;32497;48.936;9.270;2022-10-28T06:41:37;12.70;86.90
46752;DHT22;32497;48.936;9.270;2022-10-28T06:46:38;12.80;86.70
46752;DHT22;32497;48.936;9.270;2022-10-28T06:51:41;12.80;86.60
46752;DHT22;32497;48.936;9.270;2022-10-28T06:56:42;12.90;85.60
46752;DHT22;32497;48.936;9.270;2022-10-28T07:01:43;13.30;84.50
46752;DHT22;32497;48.936;9.270;2022-10-28T07:06:46;13.50;83.40
46752;DHT22;32497;48.936;9.270;2022-10-28T07:11:47;14.00;81.30
46752;DHT22;32497;48.936;9.270;2022-10-28T07:16:48;14.40;80.00
46752;DHT22;32497;48.936;9.270;2022-10-28T07:21:51;14.70;80.00
46752;DHT22;32497;48.936;9.270;2022-10-28T07:26:52;14.90;79.00
46752;DHT22;32497;48.936;9.270;2022-10-28T07:31:53;15.10;78.70
46752;DHT22;32497;48.936;9.270;2022-10-28T07:36:56;15.00;79.50
46752;DHT22;32497;48.936;9.270;2022-10-28T07:42:00;14.80;80.50
46752;DHT22;32497;48.936;9.270;2022-10-28T07:47:01;14.70;80.70
46752;DHT22;32497;48.936;9.270;2022-10-28T07:52:03;14.90;81.00
46752;DHT22;32497;48.936;9.270;2022-10-28T07:57:04;15.20;78.10
46752;DHT22;32497;48.936;9.270;2022-10-28T08:02:06;15.40;78.50
46752;DHT22;32497;48.936;9.270;2022-10-28T08:07:08;15.40;77.70
46752;DHT22;32497;48.936;9.270;2022-10-28T08:12:12;15.40;78.10
46752;DHT22;32497;48.936;9.270;2022-10-28T08:17:13;15.70;78.00
46752;DHT22;32497;48.936;9.270;2022-10-28T08:22:16;15.60;79.00
46752;DHT22;32497;48.936;9.270;2022-10-28T08:27:17;15.70;79.20
46752;DHT22;32497;48.936;9.270;2022-10-28T08:32:18;16.20;77.70
46752;DHT22;32497;48.936;9.270;2022-10-28T08:37:20;16.40;76.30
46752;DHT22;32497;48.936;9.270;2022-10-28T08:42:29;16.60;74.40
46752;DHT22;32497;48.936;9.270;2022-10-28T08:47:40;16.80;74.50
46752;DHT22;32497;48.936;9.270;2022-10-28T08:52:50;16.80;75.20
46752;DHT22;32497;48.936;9.270;2022-10-28T08:57:58;16.80;76.40
46752;DHT22;32497;48.936;9.270;2022-10-28T09:03:11;17.10;75.60
46752;DHT22;32497;48.936;9.270;2022-10-28T09:08:20;17.50;72.20
46752;DHT22;32497;48.936;9.270;2022-10-28T09:13:25;17.70;70.80
46752;DHT22;32497;48.936;9.270;2022-10-28T09:23:57;18.50;69.40
46752;DHT22;32497;48.936;9.270;2022-10-28T09:29:07;18.50;68.10
46752;DHT22;32497;48.936;9.270;2022-10-28T09:34:19;18.60;67.80
46752;DHT22;32497;48.936;9.270;2022-10-28T09:39:26;18.20;69.70
46752;DHT22;32497;48.936;9.270;2022-10-28T09:44:35;18.20;68.10
46752;DHT22;32497;48.936;9.270;2022-10-28T09:49:38;18.20;66.80
46752;DHT22;32497;48.936;9.270;2022-10-28T09:54:47;18.40;67.30
46752;DHT22;32497;48.936;9.270;2022-10-28T09:59:50;18.60;65.50
46752;DHT22;32497;48.936;9.270;2022-10-28T10:04:51;19.20;66.20
46752;DHT22;32497;48.936;9.270;2022-10-28T10:09:54;19.60;64.00
46752;DHT22;32497;48.936;9.270;2022-10-28T10:14:57;20.00;61.70
46752;DHT22;32497;48.936;9.270;2022-10-28T10:20:05;20.50;61.00
46752;DHT22;32497;48.936;9.270;2022-10-28T10:25:23;20.70;62.90
46752;DHT22;32497;48.936;9.270;2022-10-28T10:30:28;21.00;62.40
46752;DHT22;32497;48.936;9.270;2022-10-28T10:35:31;21.10;61.90
46752;DHT22;32497;48.936;9.270;2022-10-28T10:40:37;20.90;62.20
46752;DHT22;32497;48.936;9.270;2022-10-28T10:45:41;20.50;64.60
46752;DHT22;32497;48.936;9.270;2022-10-28T10:50:48;20.20;63.60
46752;DHT22;32497;48.936;9.270;2022-10-28T10:55:55;20.20;61.90
46752;DHT22;32497;48.936;9.270;2022-10-28T11:01:00;20.40;62.20
46752;DHT22;32497;48.936;9.270;2022-10-28T11:06:05;20.80;63.40
46752;DHT22;32497;48.936;9.270;2022-10-28T11:11:13;21.20;61.50
46752;DHT22;32497;48.936;9.270;2022-10-28T11:16:20;21.60;61.10
46752;DHT22;32497;48.936;9.270;2022-10-28T11:21:48;21.50;61.00
46752;DHT22;32497;48.936;9.270;2022-10-28T11:27:01;20.70;65.70
46752;DHT22;32497;48.936;9.270;2022-10-28T11:32:17;20.60;66.40
46752;DHT22;32497;48.936;9.270;2022-10-28T11:37:24;20.70;63.90
46752;DHT22;32497;48.936;9.270;2022-10-28T11:42:38;21.00;57.80
46752;DHT22;32497;48.936;9.270;2022-10-28T11:47:54;21.20;59.00
46752;DHT22;32497;48.936;9.270;2022-10-28T11:53:11;21.40;58.70
46752;DHT22;32497;48.936;9.270;2022-10-28T11:58:27;21.30;59.70
46752;DHT22;32497;48.936;9.270;2022-10-28T12:03:47;21.10;59.30
46752;DHT22;32497;48.936;9.270;2022-10-28T12:09:07;21.00;59.10
46752;DHT22;32497;48.936;9.270;2022-10-28T12:14:16;21.20;57.20
46752;DHT22;32497;48.936;9.270;2022-10-28T12:19:25;21.30;57.30
46752;DHT22;32497;48.936;9.270;2022-10-28T12:24:30;21.80;55.50
46752;DHT22;32497;48.936;9.270;2022-10-28T12:29:40;22.10;54.40
46752;DHT22;32497;48.936;9.270;2022-10-28T12:34:44;22.70;54.20
46752;DHT22;32497;48.936;9.270;2022-10-28T12:39:52;23.70;50.30
46752;DHT22;32497;48.936;9.270;2022-10-28T12:44:59;24.40;50.60
46752;DHT22;32497;48.936;9.270;2022-10-28T12:50:08;24.60;50.20
46752;DHT22;32497;48.936;9.270;2022-10-28T12:55:18;24.70;49.80
46752;DHT22;32497;48.936;9.270;2022-10-28T13:00:25;25.50;47.90
46752;DHT22;32497;48.936;9.270;2022-10-28T13:05:31;25.70;47.50
46752;DHT22;32497;48.936;9.270;2022-10-28T13:10:40;26.50;44.00
46752;DHT22;32497;48.936;9.270;2022-10-28T13:15:57;27.30;44.70
46752;DHT22;32497;48.936;9.270;2022-10-28T13:21:09;27.90;42.40
46752;DHT22;32497;48.936;9.270;2022-10-28T13:26:20;27.90;43.00
46752;DHT22;32497;48.936;9.270;2022-10-28T13:31:35;27.80;44.10
46752;DHT22;32497;48.936;9.270;2022-10-28T13:36:39;27.80;44.60
46752;DHT22;32497;48.936;9.270;2022-10-28T13:41:41;27.10;46.40
46752;DHT22;32497;48.936;9.270;2022-10-28T13:47:03;27.50;46.70
46752;DHT22;32497;48.936;9.270;2022-10-28T13:52:18;27.60;46.50
46752;DHT22;32497;48.936;9.270;2022-10-28T13:57:24;28.00;44.90
46752;DHT22;32497;48.936;9.270;2022-10-28T14:02:34;27.90;44.90
46752;DHT22;32497;48.936;9.270;2022-10-28T14:07:37;27.70;43.90
46752;DHT22;32497;48.936;9.270;2022-10-28T14:12:42;26.60;46.10
46752;DHT22;32497;48.936;9.270;2022-10-28T14:17:48;25.80;47.90
46752;DHT22;32497;48.936;9.270;2022-10-28T14:22:51;25.10;48.80
46752;DHT22;32497;48.936;9.270;2022-10-28T14:27:52;24.50;50.50
46752;DHT22;32497;48.936;9.270;2022-10-28T14:33:03;24.20;51.40
46752;DHT22;32497;48.936;9.270;2022-10-28T14:38:46;24.00;51.20
46752;DHT22;32497;48.936;9.270;2022-10-28T14:43:57;23.70;53.10
46752;DHT22;32497;48.936;9.270;2022-10-28T14:49:13;23.50;54.90
46752;DHT22;32497;48.936;9.270;2022-10-28T14:54:21;23.30;55.80
46752;DHT22;32497;48.936;9.270;2022-10-28T14:59:26;23.20;56.90
46752;DHT22;32497;48.936;9.270;2022-10-28T15:04:30;22.80;58.10
46752;DHT22;32497;48.936;9.270;2022-10-28T15:09:32;22.50;58.60
46752;DHT22;32497;48.936;9.270;2022-10-28T15:14:35;22.40;60.30
46752;DHT22;32497;48.936;9.270;2022-10-28T15:19:38;22.20;59.40
46752;DHT22;32497;48.936;9.270;2022-10-28T15:24:39;22.10;59.70
46752;DHT22;32497;48.936;9.270;2022-10-28T15:29:41;22.00;61.10
46752;DHT22;32497;48.936;9.270;2022-10-28T15:34:44;21.80;61.30
46752;DHT22;32497;48.936;9.270;2022-10-28T15:39:45;21.50;63.00
46752;DHT22;32497;48.936;9.270;2022-10-28T15:44:47;21.40;61.30
46752;DHT22;32497;48.936;9.270;2022-10-28T15:50:00;21.40;60.00
46752;DHT22;32497;48.936;9.270;2022-10-28T15:55:25;21.50;59.40
46752;DHT22;32497;48.936;9.270;2022-10-28T16:00:29;21.60;57.90
46752;DHT22;32497;48.936;9.270;2022-10-28T16:05:49;21.60;58.20
46752;DHT22;32497;48.936;9.270;2022-10-28T16:10:54;21.60;58.50
46752;DHT22;32497;48.936;9.270;2022-10-28T16:15:58;21.40;58.20
46752;DHT22;32497;48.936;9.270;2022-10-28T16:21:03;21.30;58.60
46752;DHT22;32497;48.936;9.270;2022-10-28T16:26:05;21.30;59.40
46752;DHT22;32497;48.936;9.270;2022-10-28T16:31:11;21.10;60.50
46752;DHT22;32497;48.936;9.270;2022-10-28T16:36:15;20.90;61.70
46752;DHT22;32497;48.936;9.270;2022-10-28T16:41:17;20.70;63.00
46752;DHT22;32497;48.936;9.270;2022-10-28T16:46:18;20.30;64.60
46752;DHT22;32497;48.936;9.270;2022-10-28T16:51:21;20.10;64.90
46752;DHT22;32497;48.936;9.270;2022-10-28T16:56:22;19.90;65.30
46752;DHT22;32497;48.936;9.270;2022-10-28T17:01:23;19.70;66.90
46752;DHT22;32497;48.936;9.270;2022-10-28T17:06:26;19.70;67.00
46752;DHT22;32497;48.936;9.270;2022-10-28T17:11:27;19.50;67.80
46752;DHT22;32497;48.936;9.270;2022-10-28T17:16:28;19.30;69.40
46752;DHT22;32497;48.936;9.270;2022-10-28T17:21:30;19.20;70.60
46752;DHT22;32497;48.936;9.270;2022-10-28T17:26:31;19.00;71.70
46752;DHT22;32497;48.936;9.270;2022-10-28T17:31:32;18.70;73.30
46752;DHT22;32497;48.936;9.270;2022-10-28T17:36:34;18.50;73.40
46752;DHT22;32497;48.936;9.270;2022-10-28T17:41:36;18.40;74.00
46752;DHT22;32497;48.936;9.270;2022-10-28T17:46:37;18.50;73.50
46752;DHT22;32497;48.936;9.270;2022-10-28T17:51:39;18.40;73.60
46752;DHT22;32497;48.936;9.270;2022-10-28T17:56:40;18.30;73.90
46752;DHT22;32497;48.936;9.270;2022-10-28T18:01:41;18.20;73.50
46752;DHT22;32497;48.936;9.270;2022-10-28T18:06:44;18.20;72.90
46752;DHT22;32497;48.936;9.270;2022-10-28T18:11:45;18.30;72.10
46752;DHT22;32497;48.936;9.270;2022-10-28T18:16:46;18.20;72.70
46752;DHT22;32497;48.936;9.270;2022-10-28T18:21:49;18.10;73.50
46752;DHT22;32497;48.936;9.270;2022-10-28T18:26:53;18.00;73.80
46752;DHT22;32497;48.936;9.270;2022-10-28T18:31:54;17.80;74.00
46752;DHT22;32497;48.936;9.270;2022-10-28T18:36:57;17.70;74.90
46752;DHT22;32497;48.936;9.270;2022-10-28T18:41:58;17.60;75.50
46752;DHT22;32497;48.936;9.270;2022-10-28T18:46:59;17.60;74.90
46752;DHT22;32497;48.936;9.270;2022-10-28T18:52:01;17.70;74.70
46752;DHT22;32497;48.936;9.270;2022-10-28T18:57:03;17.60;75.20
46752;DHT22;32497;48.936;9.270;2022-10-28T19:02:04;17.60;75.60
46752;DHT22;32497;48.936;9.270;2022-10-28T19:07:07;17.50;75.90
46752;DHT22;32497;48.936;9.270;2022-10-28T19:12:09;17.40;76.10
46752;DHT22;32497;48.936;9.270;2022-10-28T19:17:11;17.40;76.00
46752;DHT22;32497;48.936;9.270;2022-10-28T19:22:13;17.50;75.50
46752;DHT22;32497;48.936;9.270;2022-10-28T19:27:14;17.50;75.50
46752;DHT22;32497;48.936;9.270;2022-10-28T19:32:15;17.30;75.80
46752;DHT22;32497;48.936;9.270;2022-10-28T19:37:18;17.20;76.90
46752;DHT22;32497;48.936;9.270;2022-10-28T19:42:19;17.10;77.10
46752;DHT22;32497;48.936;9.270;2022-10-28T19:47:20;17.00;77.40
46752;DHT22;32497;48.936;9.270;2022-10-28T19:52:23;16.90;77.40
46752;DHT22;32497;48.936;9.270;2022-10-28T19:57:24;16.90;77.30
46752;DHT22;32497;48.936;9.270;2022-10-28T20:02:25;16.90;76.90
46752;DHT22;32497;48.936;9.270;2022-10-28T20:07:28;16.80;77.10
46752;DHT22;32497;48.936;9.270;2022-10-28T20:12:29;16.80;76.80
46752;DHT22;32497;48.936;9.270;2022-10-28T20:17:30;16.70;76.90
46752;DHT22;32497;48.936;9.270;2022-10-28T20:22:32;16.60;77.00
46752;DHT22;32497;48.936;9.270;2022-10-28T20:27:34;16.60;77.10
46752;DHT22;32497;48.936;9.270;2022-10-28T20:32:35;16.60;76.80
46752;DHT22;32497;48.936;9.270;2022-10-28T20:37:37;16.40;77.60
46752;DHT22;32497;48.936;9.270;2022-10-28T20:42:38;16.30;77.70
46752;DHT22;32497;48.936;9.270;2022-10-28T20:47:39;16.20;78.50
46752;DHT22;32497;48.936;9.270;2022-10-28T20:52:41;16.10;78.90
46752;DHT22;32497;48.936;9.270;2022-10-28T20:57:42;15.90;79.10
46752;DHT22;32497;48.936;9.270;2022-10-28T21:02:43;15.90;79.20
46752;DHT22;32497;48.936;9.270;2022-10-28T21:07:46;15.90;78.40
46752;DHT22;32497;48.936;9.270;2022-10-28T21:12:47;15.80;79.20
46752;DHT22;32497;48.936;9.270;2022-10-28T21:17:48;15.90;79.30
46752;DHT22;32497;48.936;9.270;2022-10-28T21:22:50;15.80;78.70
46752;DHT22;32497;48.936;9.270;2022-10-28T21:27:52;15.70;79.20
46752;DHT22;32497;48.936;9.270;2022-10-28T21:32:53;15.70;79.50
46752;DHT22;32497;48.936;9.270;2022-10-28T21:37:55;15.90;80.00
46752;DHT22;32497;48.936;9.270;2022-10-28T21:42:59;15.90;79.60
46752;DHT22;32497;48.936;9.270;2022-10-28T21:48:00;15.80;79.20
46752;DHT22;32497;48.936;9.270;2022-10-28T21:53:02;15.80;78.50
46752;DHT22;32497;48.936;9.270;2022-10-28T21:58:04;15.70;79.50
46752;DHT22;32497;48.936;9.270;2022-10-28T22:03:05;15.40;80.60
46752;DHT22;32497;48.936;9.270;2022-10-28T22:08:07;15.20;81.50
46752;DHT22;32497;48.936;9.270;2022-10-28T22:13:08;15.20;81.90
46752;DHT22;32497;48.936;9.270;2022-10-28T22:18:09;15.10;81.90
46752;DHT22;32497;48.936;9.270;2022-10-28T22:23:12;15.00;82.20
46752;DHT22;32497;48.936;9.270;2022-10-28T22:28:13;15.10;82.30
46752;DHT22;32497;48.936;9.270;2022-10-28T22:33:14;15.00;82.40
46752;DHT22;32497;48.936;9.270;2022-10-28T22:38:16;15.00;82.50
46752;DHT22;32497;48.936;9.270;2022-10-28T22:43:17;15.00;82.50
46752;DHT22;32497;48.936;9.270;2022-10-28T22:48:18;15.00;82.40
46752;DHT22;32497;48.936;9.270;2022-10-28T22:53:21;14.90;82.30
46752;DHT22;32497;48.936;9.270;2022-10-28T22:58:23;14.70;83.20
46752;DHT22;32497;48.936;9.270;2022-10-28T23:03:24;14.70;83.30
46752;DHT22;32497;48.936;9.270;2022-10-28T23:08:27;14.70;83.30
46752;DHT22;32497;48.936;9.270;2022-10-28T23:13:28;14.90;83.70
46752;DHT22;32497;48.936;9.270;2022-10-28T23:18:29;14.70;83.60
46752;DHT22;32497;48.936;9.270;2022-10-28T23:23:32;14.70;84.20
46752;DHT22;32497;48.936;9.270;2022-10-28T23:28:33;14.80;84.10
46752;DHT22;32497;48.936;9.270;2022-10-28T23:33:34;14.90;83.10
46752;DHT22;32497;48.936;9.270;2022-10-28T23:38:36;15.00;82.70
46752;DHT22;32497;48.936;9.270;2022-10-28T23:43:37;15.10;81.70
46752;DHT22;32497;48.936;9.270;2022-10-28T23:48:38;15.10;81.30
46752;DHT22;32497;48.936;9.270;2022-10-28T23:53:41;14.90;82.00
46752;DHT22;32497;48.936;9.270;2022-10-28T23:58:42;14.60;82.80
